sensor_id;sensor_type;location;lat;lon;timestamp;P1;durP1;ratioP1;P2;durP2;ratioP2
75512;SDS011;64090;49.770;18.760;2023-08-06T00:01:55;41.60;;;16.50;;
75512;SDS011;64090;49.770;18.760;2023-08-06T00:04:58;28.80;;;14.70;;
75512;SDS011;64090;49.770;18.760;2023-08-06T00:08:01;34.90;;;16.30;;
75512;SDS011;64090;49.770;18.760;2023-08-06T00:11:07;100.30;;;16.80;;
75512;SDS011;64090;49.770;18.760;2023-08-06T00:14:10;31.30;;;12.00;;
75512;SDS011;64090;49.770;18.760;2023-08-06T00:17:13;31.40;;;12.40;;
75512;SDS011;64090;49.770;18.760;2023-08-06T00:20:17;24.80;;;11.40;;
75512;SDS011;64090;49.770;18.760;2023-08-06T00:23:20;32.80;;;14.30;;
75512;SDS011;64090;49.770;18.760;2023-08-06T00:26:25;46.90;;;11.10;;
75512;SDS011;64090;49.770;18.760;2023-08-06T00:29:28;45.00;;;13.50;;
75512;SDS011;64090;49.770;18.760;2023-08-06T00:32:32;27.10;;;11.70;;
75512;SDS011;64090;49.770;18.760;2023-08-06T00:35:35;23.00;;;10.80;;
75512;SDS011;64090;49.770;18.760;2023-08-06T00:38:39;6.10;;;4.30;;
75512;SDS011;64090;49.770;18.760;2023-08-06T00:41:43;4.80;;;3.20;;
75512;SDS011;64090;49.770;18.760;2023-08-06T00:44:46;2.70;;;2.10;;
75512;SDS011;64090;49.770;18.760;2023-08-06T00:47:51;2.40;;;2.20;;
75512;SDS011;64090;49.770;18.760;2023-08-06T00:50:55;4.00;;;2.60;;
75512;SDS011;64090;49.770;18.760;2023-08-06T00:53:58;3.60;;;2.70;;
75512;SDS011;64090;49.770;18.760;2023-08-06T00:57:02;4.20;;;3.00;;
75512;SDS011;64090;49.770;18.760;2023-08-06T01:00:07;3.50;;;2.40;;
75512;SDS011;64090;49.770;18.760;2023-08-06T01:03:11;3.60;;;3.20;;
75512;SDS011;64090;49.770;18.760;2023-08-06T01:06:15;4.10;;;3.40;;
75512;SDS011;64090;49.770;18.760;2023-08-06T01:16:10;5.20;;;4.10;;
75512;SDS011;64090;49.770;18.760;2023-08-06T01:19:18;4.40;;;3.00;;
75512;SDS011;64090;49.770;18.760;2023-08-06T01:22:22;4.10;;;2.80;;
75512;SDS011;64090;49.770;18.760;2023-08-06T01:25:44;4.80;;;3.60;;
75512;SDS011;64090;49.770;18.760;2023-08-06T01:32:20;6.30;;;3.50;;
75512;SDS011;64090;49.770;18.760;2023-08-06T01:35:24;4.20;;;2.90;;
75512;SDS011;64090;49.770;18.760;2023-08-06T01:38:30;5.20;;;4.20;;
75512;SDS011;64090;49.770;18.760;2023-08-06T01:41:33;4.70;;;3.40;;
75512;SDS011;64090;49.770;18.760;2023-08-06T01:44:37;6.80;;;2.90;;
75512;SDS011;64090;49.770;18.760;2023-08-06T01:47:41;5.10;;;3.90;;
75512;SDS011;64090;49.770;18.760;2023-08-06T01:50:46;4.50;;;3.90;;
75512;SDS011;64090;49.770;18.760;2023-08-06T01:53:49;5.80;;;4.10;;
75512;SDS011;64090;49.770;18.760;2023-08-06T01:56:52;6.20;;;4.20;;
75512;SDS011;64090;49.770;18.760;2023-08-06T01:59:56;5.20;;;3.80;;
75512;SDS011;64090;49.770;18.760;2023-08-06T02:02:59;4.60;;;3.40;;
75512;SDS011;64090;49.770;18.760;2023-08-06T02:06:03;4.30;;;3.50;;
75512;SDS011;64090;49.770;18.760;2023-08-06T02:09:06;4.60;;;3.30;;
75512;SDS011;64090;49.770;18.760;2023-08-06T02:12:09;4.50;;;3.20;;
75512;SDS011;64090;49.770;18.760;2023-08-06T02:15:13;6.50;;;3.40;;
75512;SDS011;64090;49.770;18.760;2023-08-06T02:18:17;4.40;;;3.20;;
75512;SDS011;64090;49.770;18.760;2023-08-06T02:21:21;3.60;;;2.80;;
75512;SDS011;64090;49.770;18.760;2023-08-06T02:24:24;4.20;;;3.00;;
75512;SDS011;64090;49.770;18.760;2023-08-06T02:27:27;3.90;;;2.90;;
75512;SDS011;64090;49.770;18.760;2023-08-06T02:30:31;4.70;;;3.30;;
75512;SDS011;64090;49.770;18.760;2023-08-06T02:33:35;3.60;;;2.80;;
75512;SDS011;64090;49.770;18.760;2023-08-06T02:36:40;4.70;;;3.10;;
75512;SDS011;64090;49.770;18.760;2023-08-06T02:39:44;4.10;;;3.00;;
75512;SDS011;64090;49.770;18.760;2023-08-06T02:42:48;3.90;;;2.90;;
75512;SDS011;64090;49.770;18.760;2023-08-06T02:45:51;6.20;;;2.60;;
75512;SDS011;64090;49.770;18.760;2023-08-06T02:48:57;4.20;;;2.60;;
75512;SDS011;64090;49.770;18.760;2023-08-06T02:52:01;4.80;;;3.20;;
75512;SDS011;64090;49.770;18.760;2023-08-06T02:55:04;5.40;;;2.50;;
75512;SDS011;64090;49.770;18.760;2023-08-06T02:58:10;3.60;;;2.20;;
75512;SDS011;64090;49.770;18.760;2023-08-06T03:01:13;3.60;;;2.20;;
75512;SDS011;64090;49.770;18.760;2023-08-06T03:04:18;3.20;;;2.40;;
75512;SDS011;64090;49.770;18.760;2023-08-06T03:07:22;3.20;;;2.70;;
75512;SDS011;64090;49.770;18.760;2023-08-06T03:10:27;3.00;;;2.30;;
75512;SDS011;64090;49.770;18.760;2023-08-06T03:13:31;2.40;;;1.90;;
75512;SDS011;64090;49.770;18.760;2023-08-06T03:16:34;3.50;;;2.30;;
75512;SDS011;64090;49.770;18.760;2023-08-06T03:19:38;2.70;;;2.10;;
75512;SDS011;64090;49.770;18.760;2023-08-06T03:22:43;3.90;;;1.80;;
75512;SDS011;64090;49.770;18.760;2023-08-06T03:25:46;2.80;;;1.80;;
75512;SDS011;64090;49.770;18.760;2023-08-06T03:28:49;4.00;;;2.80;;
75512;SDS011;64090;49.770;18.760;2023-08-06T03:31:53;3.40;;;2.30;;
75512;SDS011;64090;49.770;18.760;2023-08-06T03:34:58;3.00;;;2.00;;
75512;SDS011;64090;49.770;18.760;2023-08-06T03:38:01;3.40;;;2.50;;
75512;SDS011;64090;49.770;18.760;2023-08-06T03:41:05;4.20;;;3.10;;
75512;SDS011;64090;49.770;18.760;2023-08-06T03:44:09;4.80;;;2.80;;
75512;SDS011;64090;49.770;18.760;2023-08-06T03:47:13;3.50;;;2.70;;
75512;SDS011;64090;49.770;18.760;2023-08-06T03:50:16;3.10;;;2.40;;
75512;SDS011;64090;49.770;18.760;2023-08-06T03:53:20;3.50;;;2.00;;
75512;SDS011;64090;49.770;18.760;2023-08-06T03:56:24;2.70;;;2.20;;
75512;SDS011;64090;49.770;18.760;2023-08-06T03:59:27;3.20;;;2.20;;
75512;SDS011;64090;49.770;18.760;2023-08-06T04:02:30;4.00;;;2.20;;
75512;SDS011;64090;49.770;18.760;2023-08-06T04:05:34;4.20;;;2.10;;
75512;SDS011;64090;49.770;18.760;2023-08-06T04:08:38;2.90;;;1.50;;
75512;SDS011;64090;49.770;18.760;2023-08-06T04:11:41;1.80;;;1.30;;
75512;SDS011;64090;49.770;18.760;2023-08-06T04:14:45;1.50;;;1.40;;
75512;SDS011;64090;49.770;18.760;2023-08-06T04:17:49;1.20;;;1.00;;
75512;SDS011;64090;49.770;18.760;2023-08-06T04:20:53;2.10;;;1.10;;
75512;SDS011;64090;49.770;18.760;2023-08-06T04:23:58;2.00;;;1.60;;
75512;SDS011;64090;49.770;18.760;2023-08-06T04:27:02;2.20;;;1.10;;
75512;SDS011;64090;49.770;18.760;2023-08-06T04:30:06;1.20;;;0.80;;
75512;SDS011;64090;49.770;18.760;2023-08-06T04:33:12;1.10;;;1.00;;
75512;SDS011;64090;49.770;18.760;2023-08-06T04:36:17;1.20;;;0.90;;
75512;SDS011;64090;49.770;18.760;2023-08-06T04:39:20;1.20;;;1.00;;
75512;SDS011;64090;49.770;18.760;2023-08-06T04:42:24;1.30;;;0.70;;
75512;SDS011;64090;49.770;18.760;2023-08-06T04:45:28;1.50;;;1.00;;
75512;SDS011;64090;49.770;18.760;2023-08-06T04:48:33;1.00;;;0.80;;
75512;SDS011;64090;49.770;18.760;2023-08-06T04:51:36;1.60;;;0.70;;
75512;SDS011;64090;49.770;18.760;2023-08-06T04:54:43;1.00;;;0.70;;
75512;SDS011;64090;49.770;18.760;2023-08-06T04:57:47;0.70;;;0.60;;
75512;SDS011;64090;49.770;18.760;2023-08-06T05:00:51;0.60;;;0.60;;
75512;SDS011;64090;49.770;18.760;2023-08-06T05:03:56;1.00;;;0.70;;
75512;SDS011;64090;49.770;18.760;2023-08-06T05:07:00;0.90;;;0.90;;
75512;SDS011;64090;49.770;18.760;2023-08-06T05:10:03;0.70;;;0.50;;
75512;SDS011;64090;49.770;18.760;2023-08-06T05:13:08;0.80;;;0.50;;
75512;SDS011;64090;49.770;18.760;2023-08-06T05:16:12;0.70;;;0.60;;
75512;SDS011;64090;49.770;18.760;2023-08-06T05:19:16;0.50;;;0.40;;
75512;SDS011;64090;49.770;18.760;2023-08-06T05:22:20;0.70;;;0.60;;
75512;SDS011;64090;49.770;18.760;2023-08-06T05:25:27;0.50;;;0.50;;
75512;SDS011;64090;49.770;18.760;2023-08-06T05:28:30;0.60;;;0.60;;
75512;SDS011;64090;49.770;18.760;2023-08-06T05:31:34;0.80;;;0.60;;
75512;SDS011;64090;49.770;18.760;2023-08-06T05:34:38;0.50;;;0.50;;
75512;SDS011;64090;49.770;18.760;2023-08-06T05:37:45;0.80;;;0.50;;
75512;SDS011;64090;49.770;18.760;2023-08-06T05:40:48;1.00;;;0.60;;
75512;SDS011;64090;49.770;18.760;2023-08-06T05:43:52;0.80;;;0.50;;
75512;SDS011;64090;49.770;18.760;2023-08-06T05:46:56;0.50;;;0.30;;
75512;SDS011;64090;49.770;18.760;2023-08-06T05:50:00;0.90;;;0.30;;
75512;SDS011;64090;49.770;18.760;2023-08-06T05:53:03;0.30;;;0.30;;
75512;SDS011;64090;49.770;18.760;2023-08-06T05:56:07;0.40;;;0.40;;
75512;SDS011;64090;49.770;18.760;2023-08-06T05:59:10;0.20;;;0.20;;
75512;SDS011;64090;49.770;18.760;2023-08-06T06:02:14;0.60;;;0.30;;
75512;SDS011;64090;49.770;18.760;2023-08-06T06:05:17;0.30;;;0.10;;
75512;SDS011;64090;49.770;18.760;2023-08-06T06:08:21;0.20;;;0.20;;
75512;SDS011;64090;49.770;18.760;2023-08-06T06:11:25;0.10;;;0.10;;
75512;SDS011;64090;49.770;18.760;2023-08-06T06:14:28;0.40;;;0.40;;
75512;SDS011;64090;49.770;18.760;2023-08-06T06:17:34;0.20;;;0.20;;
75512;SDS011;64090;49.770;18.760;2023-08-06T06:23:48;0.10;;;0.10;;
75512;SDS011;64090;49.770;18.760;2023-08-06T06:26:54;0.30;;;0.20;;
75512;SDS011;64090;49.770;18.760;2023-08-06T06:29:59;0.60;;;0.40;;
75512;SDS011;64090;49.770;18.760;2023-08-06T06:33:06;0.30;;;0.30;;
75512;SDS011;64090;49.770;18.760;2023-08-06T06:36:10;0.20;;;0.10;;
75512;SDS011;64090;49.770;18.760;2023-08-06T06:39:15;0.30;;;0.20;;
75512;SDS011;64090;49.770;18.760;2023-08-06T06:42:19;0.30;;;0.30;;
75512;SDS011;64090;49.770;18.760;2023-08-06T06:45:22;0.10;;;0.10;;
75512;SDS011;64090;49.770;18.760;2023-08-06T06:48:29;0.20;;;0.10;;
75512;SDS011;64090;49.770;18.760;2023-08-06T06:51:35;0.30;;;0.10;;
75512;SDS011;64090;49.770;18.760;2023-08-06T06:54:41;0.30;;;0.10;;
75512;SDS011;64090;49.770;18.760;2023-08-06T06:57:45;0.10;;;0.10;;
75512;SDS011;64090;49.770;18.760;2023-08-06T07:00:48;0.20;;;0.20;;
75512;SDS011;64090;49.770;18.760;2023-08-06T07:03:52;0.50;;;0.30;;
75512;SDS011;64090;49.770;18.760;2023-08-06T07:06:56;0.30;;;0.30;;
75512;SDS011;64090;49.770;18.760;2023-08-06T07:09:59;0.50;;;0.30;;
75512;SDS011;64090;49.770;18.760;2023-08-06T07:13:06;0.70;;;0.50;;
75512;SDS011;64090;49.770;18.760;2023-08-06T07:16:12;0.30;;;0.30;;
75512;SDS011;64090;49.770;18.760;2023-08-06T07:19:17;0.70;;;0.30;;
75512;SDS011;64090;49.770;18.760;2023-08-06T07:22:21;0.50;;;0.50;;
75512;SDS011;64090;49.770;18.760;2023-08-06T07:25:24;0.70;;;0.30;;
75512;SDS011;64090;49.770;18.760;2023-08-06T07:28:28;0.20;;;0.20;;
75512;SDS011;64090;49.770;18.760;2023-08-06T07:31:34;0.70;;;0.30;;
75512;SDS011;64090;49.770;18.760;2023-08-06T07:37:47;0.30;;;0.30;;
75512;SDS011;64090;49.770;18.760;2023-08-06T07:41:10;1.50;;;0.40;;
75512;SDS011;64090;49.770;18.760;2023-08-06T07:44:13;2.30;;;0.40;;
75512;SDS011;64090;49.770;18.760;2023-08-06T07:47:18;0.50;;;0.50;;
75512;SDS011;64090;49.770;18.760;2023-08-06T07:50:22;0.40;;;0.40;;
75512;SDS011;64090;49.770;18.760;2023-08-06T07:53:26;0.40;;;0.40;;
75512;SDS011;64090;49.770;18.760;2023-08-06T07:56:30;0.30;;;0.30;;
75512;SDS011;64090;49.770;18.760;2023-08-06T07:59:39;0.10;;;0.10;;
75512;SDS011;64090;49.770;18.760;2023-08-06T08:02:46;0.50;;;0.50;;
75512;SDS011;64090;49.770;18.760;2023-08-06T08:05:49;0.50;;;0.40;;
75512;SDS011;64090;49.770;18.760;2023-08-06T08:08:55;1.40;;;0.60;;
75512;SDS011;64090;49.770;18.760;2023-08-06T08:11:58;0.80;;;0.70;;
75512;SDS011;64090;49.770;18.760;2023-08-06T08:15:04;1.00;;;0.70;;
75512;SDS011;64090;49.770;18.760;2023-08-06T08:18:10;0.70;;;0.70;;
75512;SDS011;64090;49.770;18.760;2023-08-06T08:24:21;0.30;;;0.30;;
75512;SDS011;64090;49.770;18.760;2023-08-06T08:27:34;1.70;;;0.70;;
75512;SDS011;64090;49.770;18.760;2023-08-06T08:31:20;0.80;;;0.60;;
75512;SDS011;64090;49.770;18.760;2023-08-06T08:34:59;0.40;;;0.40;;
75512;SDS011;64090;49.770;18.760;2023-08-06T08:38:53;0.50;;;0.50;;
75512;SDS011;64090;49.770;18.760;2023-08-06T08:42:55;0.80;;;0.70;;
75512;SDS011;64090;49.770;18.760;2023-08-06T08:46:38;1.80;;;0.80;;
75512;SDS011;64090;49.770;18.760;2023-08-06T08:50:29;1.10;;;0.90;;
75512;SDS011;64090;49.770;18.760;2023-08-06T08:54:19;1.20;;;1.00;;
75512;SDS011;64090;49.770;18.760;2023-08-06T08:58:12;0.60;;;0.60;;
75512;SDS011;64090;49.770;18.760;2023-08-06T09:01:53;0.90;;;0.90;;
75512;SDS011;64090;49.770;18.760;2023-08-06T09:05:42;0.70;;;0.70;;
75512;SDS011;64090;49.770;18.760;2023-08-06T09:09:24;0.70;;;0.70;;
75512;SDS011;64090;49.770;18.760;2023-08-06T09:13:08;1.10;;;0.70;;
75512;SDS011;64090;49.770;18.760;2023-08-06T09:16:59;0.80;;;0.50;;
75512;SDS011;64090;49.770;18.760;2023-08-06T09:20:42;0.90;;;0.80;;
75512;SDS011;64090;49.770;18.760;2023-08-06T09:24:21;1.10;;;1.00;;
75512;SDS011;64090;49.770;18.760;2023-08-06T09:28:22;0.60;;;0.60;;
75512;SDS011;64090;49.770;18.760;2023-08-06T09:32:02;0.60;;;0.60;;
75512;SDS011;64090;49.770;18.760;2023-08-06T09:35:40;0.80;;;0.40;;
75512;SDS011;64090;49.770;18.760;2023-08-06T09:39:18;0.70;;;0.50;;
75512;SDS011;64090;49.770;18.760;2023-08-06T09:43:11;0.50;;;0.40;;
75512;SDS011;64090;49.770;18.760;2023-08-06T09:46:55;0.40;;;0.40;;
75512;SDS011;64090;49.770;18.760;2023-08-06T09:50:41;0.60;;;0.50;;
75512;SDS011;64090;49.770;18.760;2023-08-06T09:54:16;0.50;;;0.30;;
75512;SDS011;64090;49.770;18.760;2023-08-06T09:58:16;0.50;;;0.50;;
75512;SDS011;64090;49.770;18.760;2023-08-06T10:02:03;0.60;;;0.60;;
75512;SDS011;64090;49.770;18.760;2023-08-06T10:05:42;0.80;;;0.40;;
75512;SDS011;64090;49.770;18.760;2023-08-06T10:09:29;0.70;;;0.40;;
75512;SDS011;64090;49.770;18.760;2023-08-06T10:13:07;1.00;;;0.40;;
75512;SDS011;64090;49.770;18.760;2023-08-06T10:17:13;1.70;;;0.70;;
75512;SDS011;64090;49.770;18.760;2023-08-06T10:21:23;0.50;;;0.50;;
75512;SDS011;64090;49.770;18.760;2023-08-06T10:25:53;1.40;;;0.70;;
75512;SDS011;64090;49.770;18.760;2023-08-06T10:29:38;0.70;;;0.40;;
75512;SDS011;64090;49.770;18.760;2023-08-06T10:33:46;0.90;;;0.50;;
75512;SDS011;64090;49.770;18.760;2023-08-06T10:37:34;0.50;;;0.40;;
75512;SDS011;64090;49.770;18.760;2023-08-06T10:41:22;0.60;;;0.40;;
75512;SDS011;64090;49.770;18.760;2023-08-06T10:49:04;0.40;;;0.30;;
75512;SDS011;64090;49.770;18.760;2023-08-06T10:52:11;1.90;;;0.50;;
75512;SDS011;64090;49.770;18.760;2023-08-06T10:58:06;0.60;;;0.40;;
75512;SDS011;64090;49.770;18.760;2023-08-06T11:01:49;0.50;;;0.30;;
75512;SDS011;64090;49.770;18.760;2023-08-06T11:05:49;0.50;;;0.30;;
75512;SDS011;64090;49.770;18.760;2023-08-06T11:09:43;2.00;;;1.00;;
75512;SDS011;64090;49.770;18.760;2023-08-06T11:13:35;0.80;;;0.50;;
75512;SDS011;64090;49.770;18.760;2023-08-06T11:17:17;0.20;;;0.20;;
75512;SDS011;64090;49.770;18.760;2023-08-06T11:21:03;0.50;;;0.40;;
75512;SDS011;64090;49.770;18.760;2023-08-06T11:24:48;0.40;;;0.40;;
75512;SDS011;64090;49.770;18.760;2023-08-06T11:28:21;1.60;;;0.50;;
75512;SDS011;64090;49.770;18.760;2023-08-06T11:31:44;0.60;;;0.40;;
75512;SDS011;64090;49.770;18.760;2023-08-06T11:35:12;0.20;;;0.20;;
75512;SDS011;64090;49.770;18.760;2023-08-06T11:38:38;1.10;;;0.40;;
75512;SDS011;64090;49.770;18.760;2023-08-06T11:42:24;0.30;;;0.30;;
75512;SDS011;64090;49.770;18.760;2023-08-06T11:45:54;0.90;;;0.30;;
75512;SDS011;64090;49.770;18.760;2023-08-06T11:53:29;0.50;;;0.30;;
75512;SDS011;64090;49.770;18.760;2023-08-06T11:56:58;1.10;;;0.40;;
75512;SDS011;64090;49.770;18.760;2023-08-06T12:00:23;2.40;;;0.50;;
75512;SDS011;64090;49.770;18.760;2023-08-06T12:03:58;0.60;;;0.50;;
75512;SDS011;64090;49.770;18.760;2023-08-06T12:10:01;1.50;;;0.70;;
75512;SDS011;64090;49.770;18.760;2023-08-06T12:13:21;4.10;;;2.30;;
75512;SDS011;64090;49.770;18.760;2023-08-06T12:16:47;1.60;;;0.80;;
75512;SDS011;64090;49.770;18.760;2023-08-06T12:20:01;0.80;;;0.60;;
75512;SDS011;64090;49.770;18.760;2023-08-06T12:26:16;1.20;;;0.80;;
75512;SDS011;64090;49.770;18.760;2023-08-06T12:29:53;0.80;;;0.70;;
75512;SDS011;64090;49.770;18.760;2023-08-06T12:33:18;2.20;;;1.40;;
75512;SDS011;64090;49.770;18.760;2023-08-06T12:36:43;0.70;;;0.40;;
75512;SDS011;64090;49.770;18.760;2023-08-06T12:40:21;0.70;;;0.50;;
75512;SDS011;64090;49.770;18.760;2023-08-06T12:43:51;2.70;;;0.80;;
75512;SDS011;64090;49.770;18.760;2023-08-06T12:47:19;0.70;;;0.30;;
75512;SDS011;64090;49.770;18.760;2023-08-06T12:50:46;0.60;;;0.30;;
75512;SDS011;64090;49.770;18.760;2023-08-06T12:54:22;0.90;;;0.40;;
75512;SDS011;64090;49.770;18.760;2023-08-06T12:57:49;1.00;;;0.50;;
75512;SDS011;64090;49.770;18.760;2023-08-06T13:01:50;1.60;;;0.50;;
75512;SDS011;64090;49.770;18.760;2023-08-06T13:05:02;0.40;;;0.30;;
75512;SDS011;64090;49.770;18.760;2023-08-06T13:08:36;0.70;;;0.50;;
75512;SDS011;64090;49.770;18.760;2023-08-06T13:12:00;1.20;;;0.60;;
75512;SDS011;64090;49.770;18.760;2023-08-06T13:15:33;0.50;;;0.40;;
75512;SDS011;64090;49.770;18.760;2023-08-06T13:19:07;0.70;;;0.50;;
75512;SDS011;64090;49.770;18.760;2023-08-06T13:22:35;1.20;;;0.50;;
75512;SDS011;64090;49.770;18.760;2023-08-06T13:26:09;0.70;;;0.40;;
75512;SDS011;64090;49.770;18.760;2023-08-06T13:29:40;2.10;;;0.30;;
75512;SDS011;64090;49.770;18.760;2023-08-06T13:33:01;0.40;;;0.30;;
75512;SDS011;64090;49.770;18.760;2023-08-06T13:36:33;0.60;;;0.40;;
75512;SDS011;64090;49.770;18.760;2023-08-06T13:39:53;0.30;;;0.30;;
75512;SDS011;64090;49.770;18.760;2023-08-06T13:43:14;0.50;;;0.40;;
75512;SDS011;64090;49.770;18.760;2023-08-06T13:46:34;0.40;;;0.20;;
75512;SDS011;64090;49.770;18.760;2023-08-06T13:49:54;1.10;;;0.40;;
75512;SDS011;64090;49.770;18.760;2023-08-06T13:53:28;0.60;;;0.40;;
75512;SDS011;64090;49.770;18.760;2023-08-06T13:56:50;0.70;;;0.40;;
75512;SDS011;64090;49.770;18.760;2023-08-06T14:00:13;1.00;;;0.50;;
75512;SDS011;64090;49.770;18.760;2023-08-06T14:03:55;1.30;;;0.60;;
75512;SDS011;64090;49.770;18.760;2023-08-06T14:07:18;1.80;;;0.60;;
75512;SDS011;64090;49.770;18.760;2023-08-06T14:10:46;1.70;;;0.90;;
75512;SDS011;64090;49.770;18.760;2023-08-06T14:14:15;2.40;;;1.10;;
75512;SDS011;64090;49.770;18.760;2023-08-06T14:17:43;2.30;;;1.10;;
75512;SDS011;64090;49.770;18.760;2023-08-06T14:21:01;2.10;;;1.10;;
75512;SDS011;64090;49.770;18.760;2023-08-06T14:24:30;1.30;;;0.80;;
75512;SDS011;64090;49.770;18.760;2023-08-06T14:28:02;0.50;;;0.40;;
75512;SDS011;64090;49.770;18.760;2023-08-06T14:34:53;0.60;;;0.40;;
75512;SDS011;64090;49.770;18.760;2023-08-06T14:38:19;0.60;;;0.40;;
75512;SDS011;64090;49.770;18.760;2023-08-06T14:42:04;1.00;;;0.60;;
75512;SDS011;64090;49.770;18.760;2023-08-06T14:45:29;1.00;;;0.50;;
75512;SDS011;64090;49.770;18.760;2023-08-06T14:52:20;1.10;;;0.60;;
75512;SDS011;64090;49.770;18.760;2023-08-06T14:55:40;1.20;;;0.50;;
75512;SDS011;64090;49.770;18.760;2023-08-06T14:58:49;1.40;;;0.50;;
75512;SDS011;64090;49.770;18.760;2023-08-06T15:02:14;1.00;;;0.50;;
75512;SDS011;64090;49.770;18.760;2023-08-06T15:05:38;0.50;;;0.50;;
75512;SDS011;64090;49.770;18.760;2023-08-06T15:09:11;0.90;;;0.50;;
75512;SDS011;64090;49.770;18.760;2023-08-06T15:12:52;1.20;;;0.70;;
75512;SDS011;64090;49.770;18.760;2023-08-06T15:16:11;1.00;;;0.50;;
75512;SDS011;64090;49.770;18.760;2023-08-06T15:19:36;0.60;;;0.40;;
75512;SDS011;64090;49.770;18.760;2023-08-06T15:23:08;0.80;;;0.70;;
75512;SDS011;64090;49.770;18.760;2023-08-06T15:26:53;1.00;;;0.40;;
75512;SDS011;64090;49.770;18.760;2023-08-06T15:30:37;0.60;;;0.30;;
75512;SDS011;64090;49.770;18.760;2023-08-06T15:34:02;1.00;;;0.50;;
75512;SDS011;64090;49.770;18.760;2023-08-06T15:37:17;1.00;;;0.70;;
75512;SDS011;64090;49.770;18.760;2023-08-06T15:40:41;0.90;;;0.60;;
75512;SDS011;64090;49.770;18.760;2023-08-06T15:44:28;1.00;;;0.60;;
75512;SDS011;64090;49.770;18.760;2023-08-06T15:48:07;0.60;;;0.50;;
75512;SDS011;64090;49.770;18.760;2023-08-06T15:51:30;0.60;;;0.40;;
75512;SDS011;64090;49.770;18.760;2023-08-06T15:54:56;1.50;;;0.60;;
75512;SDS011;64090;49.770;18.760;2023-08-06T15:58:41;1.10;;;0.70;;
75512;SDS011;64090;49.770;18.760;2023-08-06T16:02:29;1.30;;;0.70;;
75512;SDS011;64090;49.770;18.760;2023-08-06T16:05:53;2.60;;;1.30;;
75512;SDS011;64090;49.770;18.760;2023-08-06T16:09:19;2.10;;;0.90;;
75512;SDS011;64090;49.770;18.760;2023-08-06T16:12:46;1.20;;;0.60;;
75512;SDS011;64090;49.770;18.760;2023-08-06T16:16:08;1.40;;;0.80;;
75512;SDS011;64090;49.770;18.760;2023-08-06T16:22:51;1.00;;;0.50;;
75512;SDS011;64090;49.770;18.760;2023-08-06T16:26:10;1.80;;;0.90;;
75512;SDS011;64090;49.770;18.760;2023-08-06T16:29:22;1.20;;;0.80;;
75512;SDS011;64090;49.770;18.760;2023-08-06T16:32:59;1.30;;;0.80;;
75512;SDS011;64090;49.770;18.760;2023-08-06T16:39:43;1.10;;;0.70;;
75512;SDS011;64090;49.770;18.760;2023-08-06T16:43:01;1.00;;;0.60;;
75512;SDS011;64090;49.770;18.760;2023-08-06T16:46:41;1.10;;;0.60;;
75512;SDS011;64090;49.770;18.760;2023-08-06T16:50:09;0.80;;;0.50;;
75512;SDS011;64090;49.770;18.760;2023-08-06T16:53:40;1.60;;;0.70;;
75512;SDS011;64090;49.770;18.760;2023-08-06T16:57:07;2.10;;;0.80;;
75512;SDS011;64090;49.770;18.760;2023-08-06T17:00:38;1.40;;;0.90;;
75512;SDS011;64090;49.770;18.760;2023-08-06T17:03:59;1.40;;;1.10;;
75512;SDS011;64090;49.770;18.760;2023-08-06T17:08:06;1.50;;;1.00;;
75512;SDS011;64090;49.770;18.760;2023-08-06T17:11:34;1.80;;;0.90;;
75512;SDS011;64090;49.770;18.760;2023-08-06T17:15:08;1.30;;;0.90;;
75512;SDS011;64090;49.770;18.760;2023-08-06T17:18:39;2.20;;;0.90;;
75512;SDS011;64090;49.770;18.760;2023-08-06T17:22:04;1.20;;;0.80;;
75512;SDS011;64090;49.770;18.760;2023-08-06T17:25:39;1.40;;;0.90;;
75512;SDS011;64090;49.770;18.760;2023-08-06T17:29:00;2.00;;;1.30;;
75512;SDS011;64090;49.770;18.760;2023-08-06T17:32:28;1.60;;;1.20;;
75512;SDS011;64090;49.770;18.760;2023-08-06T17:36:14;2.10;;;1.90;;
75512;SDS011;64090;49.770;18.760;2023-08-06T17:39:42;2.20;;;1.90;;
75512;SDS011;64090;49.770;18.760;2023-08-06T17:43:16;1.70;;;1.40;;
75512;SDS011;64090;49.770;18.760;2023-08-06T17:46:54;2.30;;;1.70;;
75512;SDS011;64090;49.770;18.760;2023-08-06T17:50:38;1.70;;;1.20;;
75512;SDS011;64090;49.770;18.760;2023-08-06T17:54:06;2.40;;;1.50;;
75512;SDS011;64090;49.770;18.760;2023-08-06T17:57:24;2.60;;;1.70;;
75512;SDS011;64090;49.770;18.760;2023-08-06T18:00:57;3.00;;;1.80;;
75512;SDS011;64090;49.770;18.760;2023-08-06T18:04:49;2.00;;;1.40;;
75512;SDS011;64090;49.770;18.760;2023-08-06T18:08:18;1.80;;;1.20;;
75512;SDS011;64090;49.770;18.760;2023-08-06T18:11:36;2.10;;;1.80;;
75512;SDS011;64090;49.770;18.760;2023-08-06T18:15:08;2.40;;;1.60;;
75512;SDS011;64090;49.770;18.760;2023-08-06T18:18:34;2.00;;;1.60;;
75512;SDS011;64090;49.770;18.760;2023-08-06T18:22:05;2.00;;;1.40;;
75512;SDS011;64090;49.770;18.760;2023-08-06T18:25:32;1.70;;;1.30;;
75512;SDS011;64090;49.770;18.760;2023-08-06T18:29:09;2.20;;;1.50;;
75512;SDS011;64090;49.770;18.760;2023-08-06T18:32:54;2.60;;;2.30;;
75512;SDS011;64090;49.770;18.760;2023-08-06T18:36:19;2.40;;;1.80;;
75512;SDS011;64090;49.770;18.760;2023-08-06T18:40:29;2.30;;;1.70;;
75512;SDS011;64090;49.770;18.760;2023-08-06T18:44:07;2.90;;;1.70;;
75512;SDS011;64090;49.770;18.760;2023-08-06T18:47:37;2.40;;;1.70;;
75512;SDS011;64090;49.770;18.760;2023-08-06T18:51:26;1.90;;;1.50;;
75512;SDS011;64090;49.770;18.760;2023-08-06T18:55:29;2.30;;;1.80;;
75512;SDS011;64090;49.770;18.760;2023-08-06T18:59:00;2.40;;;1.60;;
75512;SDS011;64090;49.770;18.760;2023-08-06T19:02:46;2.50;;;1.80;;
75512;SDS011;64090;49.770;18.760;2023-08-06T19:06:03;3.30;;;2.00;;
75512;SDS011;64090;49.770;18.760;2023-08-06T19:09:33;1.90;;;1.40;;
75512;SDS011;64090;49.770;18.760;2023-08-06T19:12:54;2.90;;;2.60;;
75512;SDS011;64090;49.770;18.760;2023-08-06T19:16:29;4.50;;;2.40;;
75512;SDS011;64090;49.770;18.760;2023-08-06T19:20:36;2.20;;;1.80;;
75512;SDS011;64090;49.770;18.760;2023-08-06T19:23:48;2.20;;;1.50;;
75512;SDS011;64090;49.770;18.760;2023-08-06T19:27:14;3.40;;;2.70;;
75512;SDS011;64090;49.770;18.760;2023-08-06T19:30:45;4.00;;;2.50;;
75512;SDS011;64090;49.770;18.760;2023-08-06T19:34:12;2.50;;;1.90;;
75512;SDS011;64090;49.770;18.760;2023-08-06T19:37:55;2.40;;;2.20;;
75512;SDS011;64090;49.770;18.760;2023-08-06T19:41:29;3.00;;;2.30;;
75512;SDS011;64090;49.770;18.760;2023-08-06T19:44:57;2.30;;;1.70;;
75512;SDS011;64090;49.770;18.760;2023-08-06T19:48:43;2.00;;;1.50;;
75512;SDS011;64090;49.770;18.760;2023-08-06T19:52:22;3.20;;;2.40;;
75512;SDS011;64090;49.770;18.760;2023-08-06T19:55:55;3.10;;;1.90;;
75512;SDS011;64090;49.770;18.760;2023-08-06T19:59:13;3.10;;;1.90;;
75512;SDS011;64090;49.770;18.760;2023-08-06T20:02:42;2.40;;;1.60;;
75512;SDS011;64090;49.770;18.760;2023-08-06T20:06:03;3.00;;;2.20;;
75512;SDS011;64090;49.770;18.760;2023-08-06T20:09:50;1.80;;;1.30;;
75512;SDS011;64090;49.770;18.760;2023-08-06T20:13:46;2.50;;;1.90;;
75512;SDS011;64090;49.770;18.760;2023-08-06T20:17:23;2.10;;;1.60;;
75512;SDS011;64090;49.770;18.760;2023-08-06T20:20:47;2.30;;;1.70;;
75512;SDS011;64090;49.770;18.760;2023-08-06T20:28:28;4.10;;;2.20;;
75512;SDS011;64090;49.770;18.760;2023-08-06T20:32:14;3.00;;;1.60;;
75512;SDS011;64090;49.770;18.760;2023-08-06T20:35:55;3.20;;;1.90;;
75512;SDS011;64090;49.770;18.760;2023-08-06T20:39:39;3.10;;;1.60;;
75512;SDS011;64090;49.770;18.760;2023-08-06T20:43:20;2.50;;;2.00;;
75512;SDS011;64090;49.770;18.760;2023-08-06T20:47:06;2.40;;;2.00;;